createdAt,value
2023-03-19T00:00:48.158Z,15.00
2023-03-19T00:03:15.601Z,15.48
2023-03-19T00:05:50.554Z,15.00
2023-03-19T00:08:17.872Z,14.77
2023-03-19T00:10:45.348Z,15.13
2023-03-19T00:13:12.682Z,16.00
2023-03-19T00:15:39.977Z,16.52
2023-03-19T00:18:08.549Z,14.20
2023-03-19T00:20:36.401Z,14.10
2023-03-19T00:23:03.751Z,13.95
2023-03-19T00:25:31.868Z,13.88
2023-03-19T00:27:59.274Z,14.35
2023-03-19T00:30:27.261Z,14.80
2023-03-19T00:32:54.626Z,13.18
2023-03-19T00:35:22.011Z,16.27
2023-03-19T00:37:49.257Z,14.48
2023-03-19T00:40:16.712Z,14.27
2023-03-19T00:42:44.855Z,15.48
2023-03-19T00:45:13.126Z,13.23
2023-03-19T00:47:40.628Z,13.40
2023-03-19T00:50:09.048Z,12.57
2023-03-19T00:52:36.388Z,12.77
2023-03-19T00:55:03.755Z,13.30
2023-03-19T00:57:30.960Z,13.40
2023-03-19T00:59:58.267Z,11.82
2023-03-19T01:02:25.778Z,12.82
2023-03-19T01:04:53.226Z,13.20
2023-03-19T01:07:21.374Z,11.85
2023-03-19T01:09:48.652Z,13.43
2023-03-19T01:12:16.466Z,12.73
2023-03-19T01:14:43.710Z,11.85
2023-03-19T01:17:11.083Z,11.00
2023-03-19T01:19:38.375Z,12.18
2023-03-19T01:22:05.747Z,11.38
2023-03-19T01:24:33.126Z,11.07
2023-03-19T01:27:00.587Z,12.45
2023-03-19T01:29:27.908Z,11.35
2023-03-19T01:31:55.996Z,10.20
2023-03-19T01:34:23.280Z,11.80
2023-03-19T01:36:50.641Z,10.43
2023-03-19T01:39:18.063Z,10.80
2023-03-19T01:41:45.605Z,10.13
2023-03-19T01:44:30.485Z,10.50
2023-03-19T01:47:01.663Z,10.40
2023-03-19T01:49:30.670Z,10.35
2023-03-19T01:52:00.885Z,9.00
2023-03-19T01:54:30.718Z,8.88
2023-03-19T01:57:11.411Z,9.13
2023-03-19T01:59:46.395Z,8.52
2023-03-19T02:02:33.310Z,8.50
2023-03-19T02:05:15.780Z,8.50
2023-03-19T02:07:46.088Z,9.27
2023-03-19T02:10:16.900Z,9.20
2023-03-19T02:12:44.846Z,8.02
2023-03-19T02:15:13.390Z,7.55
2023-03-19T02:17:41.837Z,7.65
2023-03-19T02:20:22.652Z,7.55
2023-03-19T02:23:16.772Z,7.68
2023-03-19T02:25:47.209Z,8.32
2023-03-19T02:28:18.473Z,6.47
2023-03-19T02:30:46.354Z,7.50
2023-03-19T02:33:16.153Z,7.28
2023-03-19T02:35:44.811Z,8.07
2023-03-19T02:38:13.813Z,7.13
2023-03-19T02:41:01.195Z,6.57
2023-03-19T02:43:29.736Z,6.72
2023-03-19T02:45:57.622Z,7.07
2023-03-19T02:48:25.484Z,6.47
2023-03-19T02:50:52.796Z,6.45
2023-03-19T02:53:20.310Z,7.00
2023-03-19T02:55:47.646Z,7.22
2023-03-19T02:58:15.440Z,6.78
2023-03-19T03:00:43.129Z,6.80
2023-03-19T03:03:10.757Z,6.80
2023-03-19T03:05:38.116Z,7.00
2023-03-19T03:08:06.084Z,6.90
2023-03-19T03:10:34.080Z,6.70
2023-03-19T03:13:01.689Z,6.35
2023-03-19T03:15:29.712Z,7.45
2023-03-19T03:17:57.024Z,6.75
2023-03-19T03:20:24.791Z,7.40
2023-03-19T03:22:52.143Z,7.30
2023-03-19T03:25:19.509Z,7.93
2023-03-19T03:27:47.138Z,7.90
2023-03-19T03:30:16.191Z,7.82
2023-03-19T03:32:44.065Z,7.85
2023-03-19T03:35:11.655Z,7.57
2023-03-19T03:37:39.791Z,8.23
2023-03-19T03:40:08.298Z,8.45
2023-03-19T03:42:37.393Z,7.75
2023-03-19T03:45:05.173Z,8.30
2023-03-19T03:47:32.485Z,8.88
2023-03-19T03:49:59.794Z,8.80
2023-03-19T03:52:31.334Z,8.68
2023-03-19T03:54:59.067Z,8.93
2023-03-19T03:57:27.491Z,9.90
2023-03-19T03:59:55.017Z,9.35
2023-03-19T04:02:22.516Z,10.15
2023-03-19T04:04:49.966Z,10.13
2023-03-19T04:07:17.341Z,9.27
2023-03-19T04:09:46.048Z,9.90
2023-03-19T04:12:16.238Z,10.68
2023-03-19T04:14:43.807Z,9.82
2023-03-19T04:17:11.280Z,10.93
2023-03-19T04:19:38.671Z,10.23
2023-03-19T04:22:07.855Z,10.93
2023-03-19T04:24:35.592Z,11.45
2023-03-19T04:27:02.858Z,11.68
2023-03-19T04:29:30.265Z,11.02
2023-03-19T04:31:57.526Z,12.02
2023-03-19T04:34:24.871Z,11.65
2023-03-19T04:36:52.206Z,11.02
2023-03-19T04:39:19.716Z,12.55
2023-03-19T04:41:47.137Z,11.73
2023-03-19T04:44:14.414Z,12.15
2023-03-19T04:46:42.018Z,13.30
2023-03-19T04:49:09.329Z,11.50
2023-03-19T04:51:36.664Z,12.23
2023-03-19T04:54:05.307Z,13.07
2023-03-19T04:56:33.273Z,12.48
2023-03-19T04:59:00.787Z,13.82
2023-03-19T05:01:28.079Z,12.77
2023-03-19T05:03:55.558Z,13.02
2023-03-19T05:06:23.013Z,13.00
2023-03-19T05:08:50.307Z,13.45
2023-03-19T05:11:17.562Z,14.52
2023-03-19T05:13:44.859Z,13.32
2023-03-19T05:16:13.299Z,13.30
2023-03-19T05:18:41.411Z,14.88
2023-03-19T05:21:12.231Z,15.50
2023-03-19T05:23:39.982Z,14.40
2023-03-19T05:26:08.471Z,15.43
2023-03-19T05:28:35.867Z,15.05
2023-03-19T05:31:04.848Z,14.63
2023-03-19T05:33:32.440Z,15.15
2023-03-19T05:35:59.778Z,15.00
2023-03-19T05:38:27.357Z,17.08
2023-03-19T05:40:54.636Z,17.17
2023-03-19T05:43:22.422Z,15.75
2023-03-19T05:45:53.029Z,17.92
2023-03-19T05:48:21.473Z,15.77
2023-03-19T05:50:48.994Z,17.42
2023-03-19T05:53:16.299Z,17.75
2023-03-19T05:55:43.679Z,15.60
2023-03-19T05:58:11.322Z,16.55
2023-03-19T06:00:38.859Z,16.98
2023-03-19T06:03:06.437Z,18.10
2023-03-19T06:05:33.811Z,18.02
2023-03-19T06:08:01.289Z,17.52
2023-03-19T06:10:28.573Z,17.10
2023-03-19T06:12:55.992Z,18.00
2023-03-19T06:15:23.312Z,17.73
2023-03-19T06:17:50.669Z,16.90
2023-03-19T06:20:18.859Z,17.25
2023-03-19T06:22:46.747Z,17.48
2023-03-19T06:25:14.054Z,17.25
2023-03-19T06:27:41.344Z,16.95
2023-03-19T06:30:09.965Z,18.45
2023-03-19T06:32:38.301Z,16.33
2023-03-19T06:35:06.497Z,17.30
2023-03-19T06:37:33.816Z,16.65
2023-03-19T06:40:01.173Z,16.67
2023-03-19T06:42:28.466Z,16.85
2023-03-19T06:44:55.825Z,16.50
2023-03-19T06:47:23.176Z,16.13
2023-03-19T06:49:50.403Z,16.85
2023-03-19T06:52:17.733Z,15.52
2023-03-19T06:54:45.049Z,16.35
2023-03-19T06:57:12.294Z,15.95
2023-03-19T06:59:39.566Z,16.13
2023-03-19T07:02:09.038Z,16.73
2023-03-19T07:04:37.275Z,14.98
2023-03-19T07:07:05.920Z,15.05
2023-03-19T07:09:33.294Z,20.02
2023-03-19T07:12:00.699Z,18.65
2023-03-19T07:14:28.200Z,15.63
2023-03-19T07:16:55.494Z,15.38
2023-03-19T07:19:23.177Z,18.23
2023-03-19T07:21:50.627Z,16.85
2023-03-19T07:24:17.911Z,15.88
2023-03-19T07:26:46.454Z,18.15
2023-03-19T07:29:13.858Z,15.88
2023-03-19T07:31:41.292Z,17.33
2023-03-19T07:34:08.665Z,16.10
2023-03-19T07:36:36.067Z,35.88
2023-03-19T07:39:03.753Z,22.73
2023-03-19T07:41:31.411Z,23.25
2023-03-19T07:43:58.680Z,22.77
2023-03-19T07:46:26.446Z,27.27
2023-03-19T07:48:53.811Z,24.75
2023-03-19T07:51:21.696Z,26.52
2023-03-19T07:53:49.107Z,29.08
2023-03-19T07:56:16.396Z,27.42
2023-03-19T07:58:43.671Z,27.30
2023-03-19T08:01:11.211Z,25.33
2023-03-19T08:03:39.483Z,29.58
2023-03-19T08:06:06.842Z,30.63
2023-03-19T08:08:34.984Z,28.98
2023-03-19T08:11:02.937Z,28.42
2023-03-19T08:13:30.309Z,26.67
2023-03-19T08:15:57.609Z,27.10
2023-03-19T08:18:25.143Z,27.50
2023-03-19T08:20:52.519Z,27.67
2023-03-19T08:23:20.173Z,26.13
2023-03-19T08:25:47.465Z,28.42
2023-03-19T08:28:14.711Z,27.02
2023-03-19T08:30:42.127Z,26.38
2023-03-19T08:33:09.462Z,26.45
2023-03-19T08:35:36.907Z,27.30
2023-03-19T08:38:04.230Z,25.45
2023-03-19T08:40:31.566Z,25.90
2023-03-19T08:42:58.953Z,26.60
2023-03-19T08:45:26.306Z,28.20
2023-03-19T08:47:53.620Z,29.60
2023-03-19T08:50:21.040Z,27.23
2023-03-19T08:52:48.341Z,26.80
2023-03-19T08:55:16.339Z,29.15
2023-03-19T08:57:43.768Z,27.08
2023-03-19T09:00:12.482Z,24.85
2023-03-19T09:02:40.390Z,27.10
2023-03-19T09:05:08.043Z,28.42
2023-03-19T09:07:35.522Z,25.95
2023-03-19T09:10:02.887Z,27.35
2023-03-19T09:12:30.354Z,26.15
2023-03-19T09:14:57.657Z,26.35
2023-03-19T09:17:25.083Z,26.63
2023-03-19T09:19:52.460Z,25.73
2023-03-19T09:22:19.745Z,26.88
2023-03-19T09:24:47.076Z,24.92
2023-03-19T09:27:14.455Z,26.90
2023-03-19T09:29:41.865Z,27.92
2023-03-19T09:32:09.292Z,26.85
2023-03-19T09:34:36.668Z,28.63
2023-03-19T09:37:04.070Z,27.98
2023-03-19T09:39:32.460Z,24.15
2023-03-19T09:42:37.498Z,24.92
2023-03-19T09:45:12.320Z,26.35
2023-03-19T09:47:39.991Z,25.30
2023-03-19T09:50:19.640Z,24.02
2023-03-19T09:53:15.426Z,23.63
2023-03-19T09:55:51.478Z,24.38
2023-03-19T09:58:28.413Z,23.33
2023-03-19T10:00:56.931Z,21.45
2023-03-19T10:03:45.393Z,22.15
2023-03-19T10:06:34.138Z,24.55
2023-03-19T10:09:01.748Z,23.50
2023-03-19T10:11:59.530Z,22.65
2023-03-19T10:14:41.728Z,23.55
2023-03-19T10:17:19.968Z,23.55
2023-03-19T10:20:02.543Z,22.50
2023-03-19T10:22:40.022Z,20.50
2023-03-19T10:25:16.059Z,20.10
2023-03-19T10:27:46.356Z,21.13
2023-03-19T10:30:19.339Z,21.48
2023-03-19T10:32:59.240Z,21.02
2023-03-19T10:35:41.352Z,20.83
2023-03-19T10:38:22.456Z,21.50
2023-03-19T10:41:23.018Z,21.23
2023-03-19T10:44:10.131Z,22.30
2023-03-19T10:46:39.143Z,19.73
2023-03-19T10:49:13.170Z,21.48
2023-03-19T10:51:43.566Z,19.77
2023-03-19T10:54:19.925Z,19.70
2023-03-19T10:56:48.102Z,19.40
2023-03-19T10:59:47.159Z,18.00
2023-03-19T11:02:21.431Z,18.73
2023-03-19T11:04:49.318Z,18.33
2023-03-19T11:07:25.498Z,19.90
2023-03-19T11:09:55.951Z,18.30
2023-03-19T11:12:35.511Z,18.70
2023-03-19T11:15:05.247Z,18.92
2023-03-19T11:17:40.399Z,18.42
2023-03-19T11:20:27.469Z,18.83
2023-03-19T11:22:58.818Z,19.63
2023-03-19T11:25:34.170Z,19.20
2023-03-19T11:28:08.251Z,19.27
2023-03-19T11:31:03.625Z,17.70
2023-03-19T11:36:25.608Z,19.20
2023-03-19T11:39:20.215Z,16.58
2023-03-19T11:42:06.481Z,18.77
2023-03-19T11:44:58.231Z,16.70
2023-03-19T11:47:49.715Z,17.45
2023-03-19T11:50:38.447Z,16.95
2023-03-19T11:53:30.937Z,16.65
2023-03-19T11:56:01.918Z,18.05
2023-03-19T11:58:38.137Z,15.73
2023-03-19T12:01:29.447Z,17.30
2023-03-19T12:04:45.921Z,16.60
2023-03-19T12:07:32.951Z,14.90
2023-03-19T12:10:17.371Z,16.02
2023-03-19T12:13:31.555Z,17.13
2023-03-19T12:16:06.156Z,15.90
2023-03-19T12:21:59.740Z,16.30
2023-03-19T12:24:52.654Z,14.95
2023-03-19T12:27:49.283Z,15.98
2023-03-19T12:30:32.090Z,16.15
2023-03-19T12:33:20.409Z,14.80
2023-03-19T12:35:52.417Z,14.95
2023-03-19T12:38:42.066Z,15.52
2023-03-19T12:41:11.542Z,14.25
2023-03-19T12:43:51.344Z,15.48
2023-03-19T12:46:49.127Z,16.13
2023-03-19T12:49:30.294Z,16.05
2023-03-19T12:52:25.717Z,14.55
2023-03-19T12:57:37.834Z,14.68
2023-03-19T13:00:29.945Z,13.93
2023-03-19T13:03:21.040Z,16.05
2023-03-19T13:05:53.121Z,15.45
2023-03-19T13:08:46.348Z,14.95
2023-03-19T13:11:20.057Z,14.82
2023-03-19T13:13:59.377Z,15.13
2023-03-19T13:16:53.000Z,15.55
2023-03-19T13:19:35.640Z,14.10
2023-03-19T13:22:09.251Z,13.13
2023-03-19T13:24:39.699Z,16.48
2023-03-19T13:27:18.918Z,13.88
2023-03-19T13:30:16.418Z,15.23
2023-03-19T13:33:02.925Z,13.43
2023-03-19T13:36:07.702Z,15.43
2023-03-19T13:38:47.816Z,13.27
2023-03-19T13:41:32.890Z,15.48
2023-03-19T13:44:21.437Z,13.07
2023-03-19T13:46:49.849Z,14.35
2023-03-19T13:49:26.354Z,15.82
2023-03-19T13:52:20.038Z,14.50
2023-03-19T13:54:47.713Z,13.98
2023-03-19T13:57:18.371Z,13.52
2023-03-19T13:59:48.043Z,12.57
2023-03-19T14:02:25.497Z,13.85
2023-03-19T14:05:08.602Z,13.90
2023-03-19T14:07:38.390Z,15.35
2023-03-19T14:10:14.522Z,14.55
2023-03-19T14:12:44.390Z,14.68
2023-03-19T14:15:16.122Z,14.50
2023-03-19T14:17:56.512Z,12.63
2023-03-19T14:20:39.993Z,13.45
2023-03-19T14:23:39.485Z,13.13
2023-03-19T14:26:19.033Z,13.48
2023-03-19T14:29:00.957Z,13.02
2023-03-19T14:31:37.056Z,13.02
2023-03-19T14:34:24.377Z,12.95
2023-03-19T14:37:02.855Z,13.20
2023-03-19T14:39:45.502Z,13.05
2023-03-19T14:42:44.096Z,14.30
2023-03-19T14:45:30.144Z,14.20
2023-03-19T14:48:31.657Z,12.93
2023-03-19T14:51:31.789Z,13.52
2023-03-19T14:54:17.680Z,12.30
2023-03-19T14:56:48.860Z,14.60
2023-03-19T14:59:16.266Z,13.25
2023-03-19T15:01:52.639Z,13.65
2023-03-19T15:04:24.775Z,13.35
2023-03-19T15:07:01.390Z,14.02
2023-03-19T15:09:32.276Z,14.45
2023-03-19T15:12:22.326Z,12.65
2023-03-19T15:15:14.654Z,12.15
2023-03-19T15:17:45.291Z,13.32
2023-03-19T15:20:22.494Z,13.40
2023-03-19T15:23:01.938Z,12.40
2023-03-19T15:25:29.376Z,13.10
2023-03-19T15:28:14.717Z,14.02
2023-03-19T15:30:53.696Z,14.23
2023-03-19T15:36:18.798Z,13.25
2023-03-19T15:38:52.695Z,12.80
2023-03-19T15:41:22.005Z,12.70
2023-03-19T15:43:49.854Z,11.90
2023-03-19T15:46:23.551Z,11.45
2023-03-19T15:49:11.511Z,13.57
2023-03-19T15:51:40.647Z,12.98
2023-03-19T15:54:09.059Z,12.32
2023-03-19T15:56:36.778Z,11.55
2023-03-19T15:59:04.742Z,11.35
2023-03-19T16:01:34.285Z,11.95
2023-03-19T16:04:07.375Z,10.43
2023-03-19T16:06:41.358Z,12.23
2023-03-19T16:09:14.887Z,11.05
2023-03-19T16:11:44.518Z,12.80
2023-03-19T16:14:27.055Z,11.95
2023-03-19T16:17:02.098Z,11.93
2023-03-19T16:19:34.246Z,10.18
2023-03-19T16:22:03.892Z,11.02
2023-03-19T16:24:40.801Z,11.27
2023-03-19T16:27:17.142Z,11.40
2023-03-19T16:29:48.034Z,10.38
2023-03-19T16:32:24.289Z,11.18
2023-03-19T16:35:03.857Z,12.38
2023-03-19T16:37:38.712Z,11.00
2023-03-19T16:40:16.034Z,10.98
2023-03-19T16:42:49.510Z,11.60
2023-03-19T16:45:16.861Z,12.63
2023-03-19T16:47:48.727Z,10.50
2023-03-19T16:50:18.837Z,10.50
2023-03-19T16:52:48.100Z,10.50
2023-03-19T16:55:28.899Z,10.10
2023-03-19T16:58:13.277Z,10.63
2023-03-19T17:00:43.139Z,11.43
2023-03-19T17:03:16.654Z,10.38
2023-03-19T17:05:45.310Z,9.30
2023-03-19T17:08:13.526Z,9.73
2023-03-19T17:10:49.182Z,9.52
2023-03-19T17:13:21.307Z,10.02
2023-03-19T17:15:50.954Z,9.85
2023-03-19T17:18:25.349Z,10.95
2023-03-19T17:20:58.358Z,9.32
2023-03-19T17:23:27.074Z,11.32
2023-03-19T17:25:54.845Z,8.80
2023-03-19T17:28:23.776Z,9.45
2023-03-19T17:30:51.621Z,9.07
2023-03-19T17:33:28.778Z,9.27
2023-03-19T17:35:58.229Z,9.13
2023-03-19T17:38:32.473Z,8.63
2023-03-19T17:40:59.899Z,10.50
2023-03-19T17:43:27.306Z,9.02
2023-03-19T17:45:55.581Z,8.20
2023-03-19T17:48:26.283Z,8.52
2023-03-19T17:50:58.020Z,8.50
2023-03-19T17:53:25.554Z,8.77
2023-03-19T17:55:52.978Z,7.57
2023-03-19T17:58:22.593Z,8.05
2023-03-19T18:00:51.380Z,10.00
2023-03-19T18:03:21.592Z,8.23
2023-03-19T18:05:52.956Z,8.38
2023-03-19T18:08:25.223Z,8.73
2023-03-19T18:10:53.337Z,7.93
2023-03-19T18:13:20.714Z,8.35
2023-03-19T18:15:48.127Z,7.15
2023-03-19T18:18:19.098Z,8.68
2023-03-19T18:20:47.462Z,7.75
2023-03-19T18:23:16.210Z,7.30
2023-03-19T18:25:47.030Z,6.95
2023-03-19T18:28:14.463Z,7.28
2023-03-19T18:30:43.827Z,7.60
2023-03-19T18:33:20.066Z,8.48
2023-03-19T18:35:48.351Z,6.45
2023-03-19T18:38:19.279Z,7.00
2023-03-19T18:40:48.014Z,7.75
2023-03-19T18:43:16.437Z,5.85
2023-03-19T18:45:47.159Z,6.70
2023-03-19T18:48:20.607Z,6.45
2023-03-19T18:50:48.511Z,6.10
2023-03-19T18:53:17.017Z,7.05
2023-03-19T18:55:44.962Z,6.90
2023-03-19T18:58:20.397Z,6.47
2023-03-19T19:00:48.951Z,6.38
2023-03-19T19:03:19.735Z,5.28
2023-03-19T19:05:47.387Z,6.97
2023-03-19T19:08:20.981Z,5.85
2023-03-19T19:10:51.257Z,6.65
2023-03-19T19:13:29.061Z,7.18
2023-03-19T19:15:56.464Z,5.20
2023-03-19T19:18:26.309Z,5.30
2023-03-19T19:20:54.705Z,5.68
2023-03-19T19:23:26.698Z,6.95
2023-03-19T19:25:55.404Z,6.68
2023-03-19T19:28:30.555Z,5.65
2023-03-19T19:30:59.786Z,6.95
2023-03-19T19:33:31.713Z,5.93
2023-03-19T19:35:59.121Z,6.50
2023-03-19T19:38:26.513Z,6.28
2023-03-19T19:40:56.316Z,5.93
2023-03-19T19:43:31.190Z,5.63
2023-03-19T19:45:59.488Z,7.68
2023-03-19T19:48:29.158Z,6.70
2023-03-19T19:50:57.035Z,6.47
2023-03-19T19:53:26.233Z,6.45
2023-03-19T19:55:54.347Z,7.60
2023-03-19T19:58:27.305Z,5.80
2023-03-19T20:01:03.356Z,6.15
2023-03-19T20:03:33.952Z,6.82
2023-03-19T20:06:02.277Z,8.38
2023-03-19T20:08:29.778Z,6.80
2023-03-19T20:10:57.693Z,6.57
2023-03-19T20:13:26.403Z,5.43
2023-03-19T20:15:55.923Z,6.13
2023-03-19T20:18:24.654Z,6.57
2023-03-19T20:20:52.895Z,5.95
2023-03-19T20:23:20.870Z,5.78
2023-03-19T20:25:49.017Z,5.90
2023-03-19T20:28:23.059Z,6.88
2023-03-19T20:30:53.908Z,5.82
2023-03-19T20:33:21.851Z,6.75
2023-03-19T20:35:49.585Z,5.72
2023-03-19T20:38:16.910Z,6.50
2023-03-19T20:40:45.774Z,7.30
2023-03-19T20:43:35.362Z,6.07
2023-03-19T20:46:05.405Z,7.15
2023-03-19T20:48:33.835Z,6.28
2023-03-19T20:51:02.466Z,6.70
2023-03-19T20:53:30.513Z,6.32
2023-03-19T20:55:57.791Z,6.47
2023-03-19T20:58:29.566Z,5.80
2023-03-19T21:00:58.517Z,6.07
2023-03-19T21:03:31.310Z,5.45
2023-03-19T21:06:10.442Z,6.35
2023-03-19T21:08:44.844Z,6.05
2023-03-19T21:11:20.000Z,7.05
2023-03-19T21:13:53.205Z,6.80
2023-03-19T21:16:23.444Z,7.75
2023-03-19T21:18:51.808Z,6.57
2023-03-19T21:21:25.026Z,6.03
2023-03-19T21:24:01.225Z,4.90
2023-03-19T21:26:28.677Z,7.18
2023-03-19T21:29:02.900Z,7.03
2023-03-19T21:31:30.367Z,7.50
2023-03-19T21:33:58.558Z,9.50
2023-03-19T21:36:26.233Z,8.35
2023-03-19T21:38:53.538Z,7.90
2023-03-19T21:41:31.848Z,5.85
2023-03-19T21:44:07.554Z,9.82
2023-03-19T21:46:35.349Z,9.23
2023-03-19T21:49:02.725Z,9.68
2023-03-19T21:51:30.295Z,5.85
2023-03-19T21:53:58.480Z,8.93
2023-03-19T21:56:32.735Z,7.40
2023-03-19T21:59:12.382Z,6.03
2023-03-19T22:01:39.723Z,6.60
2023-03-19T22:04:07.108Z,7.50
2023-03-19T22:06:34.687Z,5.55
2023-03-19T22:09:02.727Z,5.55
2023-03-19T22:11:36.303Z,6.70
2023-03-19T22:14:07.972Z,6.22
2023-03-19T22:16:35.782Z,6.63
2023-03-19T22:19:03.276Z,8.10
2023-03-19T22:21:31.302Z,5.45
2023-03-19T22:23:58.801Z,7.35
2023-03-19T22:26:34.078Z,5.45
2023-03-19T22:29:23.624Z,5.68
2023-03-19T22:31:52.670Z,5.15
2023-03-19T22:34:22.512Z,4.05
2023-03-19T22:36:50.031Z,4.00
2023-03-19T22:39:17.525Z,5.15
2023-03-19T22:41:47.886Z,7.50
2023-03-19T22:44:29.940Z,5.43
2023-03-19T22:46:59.725Z,3.85
2023-03-19T22:49:28.351Z,4.97
2023-03-19T22:51:56.585Z,4.50
2023-03-19T22:54:24.195Z,5.03
2023-03-19T22:56:51.416Z,5.05
2023-03-19T22:59:18.768Z,4.80
2023-03-19T23:01:47.827Z,4.25
2023-03-19T23:04:20.729Z,4.38
2023-03-19T23:06:48.862Z,5.80
2023-03-19T23:09:21.706Z,5.80
2023-03-19T23:11:49.410Z,4.68
2023-03-19T23:14:28.577Z,4.55
2023-03-19T23:19:30.439Z,3.58
2023-03-19T23:21:58.958Z,5.80
2023-03-19T23:24:27.792Z,4.78
2023-03-19T23:26:56.988Z,3.60
2023-03-19T23:29:30.928Z,4.82
2023-03-19T23:31:58.657Z,3.88
2023-03-19T23:34:27.177Z,4.40
2023-03-19T23:36:54.486Z,4.07
2023-03-19T23:39:21.813Z,3.58
2023-03-19T23:41:52.999Z,4.18
2023-03-19T23:44:20.463Z,4.57
2023-03-19T23:46:50.425Z,4.47
2023-03-19T23:49:33.153Z,4.40
2023-03-19T23:52:01.906Z,4.90
2023-03-19T23:54:32.728Z,3.38
2023-03-19T23:57:04.224Z,6.00
2023-03-19T23:59:35.714Z,3.95
